Time;durP1;ratioP1;P1;durP2;ratioP2;P2;SDS_P1;SDS_P2;PMS_P1;PMS_P2;Temp;Humidity;BMP_temperature;BMP_pressure;BME280_temperature;BME280_humidity;BME280_pressure;Samples;Min_cycle;Max_cycle;Signal;HPM_P1;HPM_P2
2022/06/22 00:01:33;;;;;;;1.70;1.57;;;14.60;99.90;;;;;;4972740;28;20230;-68
2022/06/22 00:04:02;;;;;;;2.13;1.50;;;14.60;99.90;;;;;;4972678;28;20211;-68
2022/06/22 00:06:33;;;;;;;3.77;1.50;;;14.50;99.90;;;;;;4971737;28;20212;-68
2022/06/22 00:09:01;;;;;;;1.60;1.40;;;14.50;99.90;;;;;;4973198;28;20188;-67
2022/06/22 00:11:28;;;;;;;2.57;1.70;;;14.50;99.90;;;;;;4971771;28;20211;-67
2022/06/22 00:13:57;;;;;;;3.07;1.37;;;14.50;99.90;;;;;;4973076;28;20212;-68
2022/06/22 00:16:27;;;;;;;3.30;1.70;;;14.40;99.90;;;;;;4973158;28;20653;-69
2022/06/22 00:18:55;;;;;;;5.47;1.93;;;14.40;99.90;;;;;;4972767;28;20263;-69
2022/06/22 00:21:28;;;;;;;3.27;1.73;;;14.40;99.90;;;;;;4972587;28;20231;-68
2022/06/22 00:23:58;;;;;;;2.83;1.40;;;14.40;99.90;;;;;;4971600;28;20212;-67
2022/06/22 00:26:33;;;;;;;2.67;1.57;;;14.40;99.90;;;;;;4972628;28;20247;-68
2022/06/22 00:29:20;;;;;;;1.60;1.50;;;14.40;99.90;;;;;;4972398;28;20243;-67
2022/06/22 00:32:01;;;;;;;2.93;1.47;;;14.30;99.90;;;;;;4971618;28;20215;-68
2022/06/22 00:34:30;;;;;;;2.47;1.40;;;14.30;99.90;;;;;;4972404;28;20567;-68
2022/06/22 00:37:00;;;;;;;2.97;1.53;;;14.40;99.90;;;;;;4972557;28;20215;-68
2022/06/22 00:39:36;;;;;;;1.53;1.40;;;14.30;99.90;;;;;;4972694;28;20212;-70
2022/06/22 00:42:24;;;;;;;2.00;1.47;;;14.30;99.90;;;;;;4975290;28;20222;-68
2022/06/22 00:44:54;;;;;;;1.53;1.37;;;14.20;99.90;;;;;;4957082;29;20236;-68
2022/06/22 00:47:27;;;;;;;2.30;1.50;;;14.20;99.90;;;;;;4957613;28;20228;-69
2022/06/22 00:49:56;;;;;;;1.77;1.40;;;14.20;99.90;;;;;;4956985;29;20193;-68
2022/06/22 00:52:34;;;;;;;6.47;1.50;;;14.10;99.90;;;;;;4962841;28;20260;-68
2022/06/22 00:55:01;;;;;;;1.63;1.37;;;14.10;99.90;;;;;;4973260;28;20223;-68
2022/06/22 00:57:33;;;;;;;3.90;1.30;;;14.10;99.90;;;;;;4976035;28;20307;-65
2022/06/22 01:00:05;;;;;;;1.67;1.50;;;14.00;99.90;;;;;;4970738;28;20262;-66
2022/06/22 01:02:38;;;;;;;2.20;1.50;;;14.00;99.90;;;;;;4975942;28;20318;-66
2022/06/22 01:05:16;;;;;;;2.73;1.20;;;14.00;99.90;;;;;;4956958;29;20215;-66
2022/06/22 01:07:51;;;;;;;3.23;1.20;;;13.90;99.90;;;;;;4956593;29;20279;-67
2022/06/22 01:10:27;;;;;;;1.40;1.30;;;13.90;99.90;;;;;;4969428;28;20690;-66
2022/06/22 01:12:58;;;;;;;1.10;1.10;;;13.80;99.90;;;;;;4975569;28;20212;-68
2022/06/22 01:15:31;;;;;;;1.70;1.20;;;13.90;99.90;;;;;;4975808;28;20199;-67
2022/06/22 01:18:05;;;;;;;1.67;1.50;;;13.90;99.90;;;;;;4975567;28;20551;-66
2022/06/22 01:20:43;;;;;;;1.23;1.20;;;13.90;99.90;;;;;;4974796;28;20263;-66
2022/06/22 01:24:00;;;;;;;2.23;1.40;;;13.90;99.90;;;;;;4975736;28;20686;-66
2022/06/22 01:27:05;;;;;;;2.23;1.20;;;13.90;99.90;;;;;;4970504;28;20583;-66
2022/06/22 01:29:34;;;;;;;1.53;1.20;;;13.90;99.90;;;;;;4960833;28;20295;-67
2022/06/22 01:32:03;;;;;;;1.07;1.07;;;13.90;99.90;;;;;;4975471;28;20267;-66
2022/06/22 01:34:35;;;;;;;1.30;1.20;;;13.90;99.90;;;;;;4975197;28;20212;-67
2022/06/22 01:37:03;;;;;;;1.87;1.30;;;14.00;99.90;;;;;;4975462;28;20223;-66
2022/06/22 01:39:30;;;;;;;1.60;1.50;;;13.90;99.90;;;;;;4974312;28;20208;-66
2022/06/22 01:42:01;;;;;;;1.53;1.33;;;13.90;99.90;;;;;;4974373;28;20232;-66
2022/06/22 01:44:31;;;;;;;2.43;1.40;;;13.90;99.90;;;;;;4975130;28;20202;-66
2022/06/22 01:47:23;;;;;;;2.90;1.30;;;13.80;99.90;;;;;;4975322;28;20216;-67
2022/06/22 01:49:56;;;;;;;3.43;1.53;;;13.80;99.90;;;;;;4973832;28;20269;-67
2022/06/22 01:52:39;;;;;;;2.17;1.37;;;13.80;99.90;;;;;;4974732;28;20189;-67
2022/06/22 01:55:13;;;;;;;2.17;1.60;;;13.80;99.90;;;;;;4974671;28;20290;-68
2022/06/22 01:57:45;;;;;;;1.33;1.23;;;13.90;99.90;;;;;;4975594;28;20225;-66
2022/06/22 02:00:15;;;;;;;2.37;1.40;;;13.90;99.90;;;;;;4973843;28;20256;-65
2022/06/22 02:02:49;;;;;;;2.70;1.20;;;13.90;99.90;;;;;;4974496;28;20335;-66
2022/06/22 02:05:23;;;;;;;1.50;1.40;;;13.90;99.90;;;;;;4975117;28;20694;-66
2022/06/22 02:07:56;;;;;;;2.30;1.40;;;13.90;99.90;;;;;;4974333;28;20200;-66
2022/06/22 02:10:30;;;;;;;2.13;1.40;;;13.90;99.90;;;;;;4973746;28;20566;-65
2022/06/22 02:13:04;;;;;;;1.33;1.23;;;13.90;99.90;;;;;;4974713;28;20203;-66
2022/06/22 02:15:45;;;;;;;1.53;1.43;;;13.90;99.90;;;;;;4974375;28;20288;-66
2022/06/22 02:18:15;;;;;;;1.33;1.23;;;14.00;99.90;;;;;;4974386;28;20292;-66
2022/06/22 02:20:43;;;;;;;1.47;1.37;;;14.00;99.90;;;;;;4973276;28;20291;-66
2022/06/22 02:23:18;;;;;;;2.60;1.30;;;14.00;99.90;;;;;;4974717;28;20204;-65
2022/06/22 02:25:52;;;;;;;1.30;1.20;;;14.00;99.90;;;;;;4974225;28;20192;-66
2022/06/22 02:28:19;;;;;;;4.03;1.43;;;14.10;99.90;;;;;;4974786;28;20195;-66
2022/06/22 02:30:46;;;;;;;1.70;1.30;;;14.00;99.90;;;;;;4973121;28;20299;-67
2022/06/22 02:33:16;;;;;;;1.40;1.30;;;14.00;99.90;;;;;;4974644;28;20306;-66
2022/06/22 02:35:44;;;;;;;1.50;1.37;;;14.00;99.90;;;;;;4973960;28;20204;-67
2022/06/22 02:38:15;;;;;;;1.53;1.43;;;14.00;99.90;;;;;;4973902;28;20307;-66
2022/06/22 02:46:19;;;;;;;1.83;1.63;;;14.10;99.90;;;;;;4974439;28;20666;-67
2022/06/22 02:48:52;;;;;;;2.33;1.50;;;14.10;99.90;;;;;;4973708;28;20306;-67
2022/06/22 02:51:25;;;;;;;5.70;1.57;;;14.10;99.90;;;;;;4973771;28;20251;-68
2022/06/22 02:53:54;;;;;;;1.63;1.53;;;14.00;99.90;;;;;;4973803;28;20212;-67
2022/06/22 02:56:26;;;;;;;1.50;1.40;;;14.00;99.90;;;;;;4969377;28;20218;-68
2022/06/22 02:58:53;;;;;;;1.40;1.30;;;14.10;99.90;;;;;;4973683;28;20282;-67
2022/06/22 03:01:23;;;;;;;2.63;1.70;;;14.10;99.90;;;;;;4972736;28;20323;-67
2022/06/22 03:03:55;;;;;;;1.50;1.40;;;14.10;99.90;;;;;;4970049;28;20218;-67
2022/06/22 03:06:27;;;;;;;1.67;1.57;;;14.10;99.90;;;;;;4973292;28;20296;-67
2022/06/22 03:08:54;;;;;;;2.67;1.57;;;14.10;99.90;;;;;;4971346;28;20207;-67
2022/06/22 03:11:22;;;;;;;2.97;1.60;;;14.10;99.90;;;;;;4972565;28;20203;-67
2022/06/22 03:13:53;;;;;;;1.70;1.50;;;14.20;99.90;;;;;;4972451;28;20204;-67
2022/06/22 03:16:27;;;;;;;1.70;1.60;;;14.10;99.90;;;;;;4972239;28;20228;-67
2022/06/22 03:18:57;;;;;;;1.80;1.50;;;14.10;99.90;;;;;;4973724;28;20227;-66
2022/06/22 03:21:24;;;;;;;2.50;1.50;;;14.10;99.90;;;;;;4971602;28;20216;-67
2022/06/22 03:23:57;;;;;;;3.00;1.47;;;14.10;99.90;;;;;;4972822;28;20204;-68
2022/06/22 03:26:26;;;;;;;2.90;1.50;;;14.10;99.90;;;;;;4973390;28;20639;-68
2022/06/22 03:29:01;;;;;;;3.13;1.60;;;14.20;99.90;;;;;;4973614;28;20283;-67
2022/06/22 03:31:36;;;;;;;3.03;1.40;;;14.20;99.90;;;;;;4968615;28;20571;-68
2022/06/22 03:34:10;;;;;;;1.60;1.50;;;14.20;99.90;;;;;;4972376;28;20215;-67
2022/06/22 03:36:42;;;;;;;2.13;1.60;;;14.10;99.90;;;;;;4972477;28;20570;-66
2022/06/22 03:39:14;;;;;;;1.77;1.50;;;14.10;99.90;;;;;;4972722;28;20204;-67
2022/06/22 03:41:46;;;;;;;2.53;1.43;;;14.10;99.90;;;;;;4953867;29;20228;-67
2022/06/22 03:44:17;;;;;;;1.50;1.40;;;14.10;99.90;;;;;;4967315;28;20290;-68
2022/06/22 03:46:49;;;;;;;2.70;2.30;;;14.10;99.90;;;;;;4972853;28;20255;-67
2022/06/22 03:49:22;;;;;;;4.90;1.77;;;14.00;99.90;;;;;;4972049;28;20295;-67
2022/06/22 03:51:52;;;;;;;1.50;1.40;;;14.10;99.90;;;;;;4973286;28;20346;-66
2022/06/22 03:54:27;;;;;;;1.50;1.40;;;14.10;99.90;;;;;;4969396;28;20324;-67
2022/06/22 03:56:58;;;;;;;3.10;1.50;;;14.20;99.90;;;;;;4972848;28;20282;-69
2022/06/22 03:59:26;;;;;;;1.87;1.60;;;14.20;99.90;;;;;;4971875;28;20215;-66
2022/06/22 04:01:56;;;;;;;2.77;1.50;;;14.30;99.90;;;;;;4970442;28;20254;-68
2022/06/22 04:04:24;;;;;;;2.20;1.43;;;14.30;99.90;;;;;;4972795;28;20196;-69
2022/06/22 04:06:55;;;;;;;3.80;1.57;;;14.30;99.90;;;;;;4972945;28;20305;-68
2022/06/22 04:09:24;;;;;;;3.03;2.00;;;14.30;99.90;;;;;;4971639;28;20295;-68
2022/06/22 04:11:57;;;;;;;2.07;1.70;;;14.30;99.90;;;;;;4969492;28;20630;-68
2022/06/22 04:14:29;;;;;;;1.93;1.73;;;14.20;99.90;;;;;;4969285;28;20204;-67
2022/06/22 04:17:01;;;;;;;1.60;1.50;;;14.10;99.90;;;;;;4972830;28;20203;-67
2022/06/22 04:19:34;;;;;;;2.90;1.70;;;14.20;99.90;;;;;;4971465;28;20228;-67
2022/06/22 04:22:04;;;;;;;4.07;1.80;;;14.20;99.90;;;;;;4971859;28;20311;-67
2022/06/22 04:24:35;;;;;;;3.47;1.77;;;14.20;99.90;;;;;;4972319;28;20204;-67
2022/06/22 04:27:09;;;;;;;3.00;2.33;;;14.20;99.90;;;;;;4972843;28;20236;-67
2022/06/22 04:29:41;;;;;;;4.40;2.50;;;14.20;99.90;;;;;;4971121;28;20244;-67
2022/06/22 04:32:15;;;;;;;3.97;1.70;;;14.20;99.90;;;;;;4971642;28;20207;-67
2022/06/22 04:34:49;;;;;;;2.03;1.57;;;14.20;99.90;;;;;;4972546;28;20279;-67
2022/06/22 04:37:27;;;;;;;3.03;1.57;;;14.10;99.90;;;;;;4972739;28;20675;-67
2022/06/22 04:40:04;;;;;;;2.67;1.60;;;14.10;99.90;;;;;;4971371;28;20616;-68
2022/06/22 04:42:31;;;;;;;1.77;1.60;;;14.00;99.90;;;;;;4969104;28;20216;-67
2022/06/22 04:44:58;;;;;;;3.70;1.70;;;14.10;99.90;;;;;;4972547;28;20299;-68
2022/06/22 04:47:31;;;;;;;2.50;1.60;;;14.10;99.90;;;;;;4972566;28;20207;-70
2022/06/22 04:50:05;;;;;;;1.93;1.60;;;14.00;99.90;;;;;;4972252;28;20238;-70
2022/06/22 04:52:35;;;;;;;1.77;1.60;;;13.90;99.90;;;;;;4971910;28;20299;-69
2022/06/22 04:55:05;;;;;;;2.17;1.70;;;14.00;99.90;;;;;;4971981;28;20299;-67
2022/06/22 04:57:37;;;;;;;2.73;1.60;;;14.00;99.90;;;;;;4972138;28;20208;-68
2022/06/22 05:00:07;;;;;;;2.13;1.70;;;14.10;99.90;;;;;;4969927;28;20214;-67
2022/06/22 05:02:40;;;;;;;2.40;1.40;;;14.10;99.90;;;;;;4970384;28;20243;-67
2022/06/22 05:05:16;;;;;;;1.57;1.40;;;14.20;99.90;;;;;;4970877;28;20224;-68
2022/06/22 05:07:49;;;;;;;1.50;1.40;;;14.30;99.90;;;;;;4972296;28;20207;-68
2022/06/22 05:10:21;;;;;;;1.73;1.60;;;14.40;99.90;;;;;;4970710;28;20510;-67
2022/06/22 05:12:54;;;;;;;1.50;1.40;;;14.50;99.90;;;;;;4972440;28;20309;-69
2022/06/22 05:15:24;;;;;;;2.80;1.70;;;14.60;99.90;;;;;;4971470;28;20719;-68
2022/06/22 05:17:51;;;;;;;1.77;1.63;;;14.70;99.90;;;;;;4972027;28;20588;-67
2022/06/22 05:20:26;;;;;;;3.40;1.90;;;14.70;99.90;;;;;;4969671;28;20215;-67
2022/06/22 05:22:58;;;;;;;2.77;1.90;;;14.40;99.90;;;;;;4971588;28;20673;-67
2022/06/22 05:25:25;;;;;;;3.87;2.20;;;14.30;99.90;;;;;;4971990;28;20279;-68
2022/06/22 05:28:02;;;;;;;3.03;2.00;;;14.20;99.90;;;;;;4974961;28;20650;-67
2022/06/22 05:30:35;;;;;;;1.90;1.70;;;14.30;99.90;;;;;;4972676;28;20253;-68
2022/06/22 05:33:06;;;;;;;4.67;2.30;;;14.30;99.90;;;;;;4975412;28;20188;-67
2022/06/22 05:35:46;;;;;;;2.23;2.00;;;14.30;99.90;;;;;;4975741;28;20281;-66
2022/06/22 05:38:18;;;;;;;6.43;1.50;;;14.30;99.90;;;;;;4975060;28;20235;-67
2022/06/22 05:40:48;;;;;;;3.13;1.80;;;14.30;99.90;;;;;;4973151;28;20728;-67
2022/06/22 05:43:15;;;;;;;2.03;1.63;;;14.40;99.90;;;;;;4974889;28;20251;-67
2022/06/22 05:45:46;;;;;;;2.40;1.50;;;14.50;99.90;;;;;;4975044;28;20306;-67
2022/06/22 05:48:17;;;;;;;3.13;1.83;;;14.60;99.90;;;;;;4970133;28;20295;-67
2022/06/22 05:50:53;;;;;;;3.83;1.77;;;14.80;99.90;;;;;;4973502;28;20235;-67
2022/06/22 05:53:25;;;;;;;2.63;1.90;;;14.80;99.90;;;;;;4974418;28;20259;-68
2022/06/22 05:56:06;;;;;;;4.47;1.80;;;14.90;99.90;;;;;;4971746;28;20290;-68
2022/06/22 05:58:42;;;;;;;2.53;1.70;;;14.80;99.90;;;;;;4975287;28;20283;-66
2022/06/22 06:01:17;;;;;;;2.63;2.07;;;14.80;99.90;;;;;;4973884;28;20204;-67
2022/06/22 06:03:50;;;;;;;4.10;2.00;;;14.90;99.90;;;;;;4972890;28;20246;-67
2022/06/22 06:06:24;;;;;;;3.53;1.67;;;14.90;99.90;;;;;;4967222;28;20266;-67
2022/06/22 06:08:55;;;;;;;1.70;1.37;;;14.80;99.90;;;;;;4967639;28;20263;-67
2022/06/22 06:11:25;;;;;;;1.50;1.40;;;14.60;99.90;;;;;;4973466;28;20651;-68
2022/06/22 06:13:59;;;;;;;4.00;1.50;;;14.60;99.90;;;;;;4973905;28;20306;-69
2022/06/22 06:16:29;;;;;;;2.77;1.90;;;14.50;99.90;;;;;;4973539;28;20279;-68
2022/06/22 06:18:59;;;;;;;2.67;1.90;;;14.50;99.90;;;;;;4971826;28;20235;-67
2022/06/22 06:21:33;;;;;;;3.57;1.70;;;14.60;99.90;;;;;;4973178;28;20208;-67
2022/06/22 06:24:06;;;;;;;3.07;1.80;;;14.80;99.90;;;;;;4974348;28;20307;-68
2022/06/22 06:29:32;;;;;;;3.07;1.90;;;14.70;99.90;;;;;;4973983;28;20196;-68
2022/06/22 06:32:06;;;;;;;3.60;2.20;;;14.70;99.90;;;;;;4971647;28;20211;-66
2022/06/22 06:34:38;;;;;;;2.57;1.97;;;14.70;99.90;;;;;;4973512;28;20255;-68
2022/06/22 06:37:12;;;;;;;2.83;2.20;;;14.70;99.90;;;;;;4970522;28;20291;-69
2022/06/22 06:39:44;;;;;;;3.10;2.00;;;14.80;99.90;;;;;;4973119;28;20238;-67
2022/06/22 06:42:23;;;;;;;3.57;1.60;;;15.00;99.90;;;;;;4974028;28;20678;-67
2022/06/22 06:44:52;;;;;;;2.77;1.70;;;15.00;99.90;;;;;;4954793;29;20200;-67
2022/06/22 06:47:27;;;;;;;2.53;1.80;;;15.10;99.90;;;;;;4954442;28;20213;-67
2022/06/22 06:50:00;;;;;;;2.37;1.80;;;15.10;99.90;;;;;;4970802;28;20294;-67
2022/06/22 06:52:35;;;;;;;3.33;1.90;;;15.00;99.90;;;;;;4973838;28;20287;-68
2022/06/22 06:55:15;;;;;;;4.20;1.87;;;15.10;99.90;;;;;;4973724;28;20283;-68
2022/06/22 06:57:50;;;;;;;5.37;1.97;;;15.20;99.90;;;;;;4972431;28;20374;-67
2022/06/22 07:00:18;;;;;;;2.00;1.70;;;15.20;99.90;;;;;;4966127;28;20199;-67
2022/06/22 07:02:45;;;;;;;5.33;1.60;;;15.30;99.90;;;;;;4971714;28;20240;-68
2022/06/22 07:05:16;;;;;;;1.40;1.30;;;15.20;99.90;;;;;;4973676;28;20211;-67
2022/06/22 07:07:52;;;;;;;1.90;1.60;;;15.10;99.90;;;;;;4972990;28;20247;-68
2022/06/22 07:10:24;;;;;;;2.27;1.93;;;15.00;99.90;;;;;;4972488;28;20195;-67
2022/06/22 07:12:57;;;;;;;4.10;1.53;;;15.10;99.90;;;;;;4972673;28;20260;-67
2022/06/22 07:15:28;;;;;;;2.93;1.50;;;15.30;99.90;;;;;;4973560;28;20225;-68
2022/06/22 07:18:00;;;;;;;2.73;1.50;;;15.50;99.90;;;;;;4972740;28;20255;-66
2022/06/22 07:20:31;;;;;;;2.10;1.43;;;15.60;99.90;;;;;;4970528;28;20212;-67
2022/06/22 07:23:04;;;;;;;3.77;1.43;;;15.70;99.90;;;;;;4969607;28;20351;-67
2022/06/22 16:21:44;;;;;;;3.17;1.90;;;17.50;99.90;;;;;;5143021;27;20549;-67
2022/06/22 16:24:14;;;;;;;2.87;2.10;;;18.10;99.90;;;;;;5120499;27;20260;-66
2022/06/22 16:26:45;;;;;;;3.87;1.80;;;18.00;99.90;;;;;;5128028;28;20201;-68
2022/06/22 16:29:19;;;;;;;2.57;1.80;;;18.10;99.90;;;;;;5127742;27;20197;-70
2022/06/22 16:31:55;;;;;;;2.73;1.90;;;18.20;99.90;;;;;;5127129;28;20216;-66
2022/06/22 16:34:31;;;;;;;2.23;1.80;;;18.00;99.90;;;;;;5141185;27;20244;-66
2022/06/22 16:37:10;;;;;;;2.67;1.60;;;17.90;99.90;;;;;;5150124;27;20557;-67
2022/06/22 16:39:50;;;;;;;3.30;1.97;;;17.70;99.90;;;;;;5128404;27;20215;-66
2022/06/22 16:42:27;;;;;;;1.87;1.53;;;17.60;99.90;;;;;;5129521;28;20230;-68
2022/06/22 16:45:03;;;;;;;5.90;1.70;;;17.70;99.90;;;;;;5127107;28;20391;-66
2022/06/22 16:47:45;;;;;;;1.80;1.70;;;17.60;99.90;;;;;;5126883;27;20197;-67
2022/06/22 16:50:16;;;;;;;2.47;1.80;;;17.60;99.90;;;;;;5129224;28;20188;-66
2022/06/22 16:52:48;;;;;;;3.17;1.73;;;17.50;99.90;;;;;;5129201;28;20231;-68
2022/06/22 16:55:19;;;;;;;2.50;1.90;;;17.50;99.90;;;;;;5149582;27;20240;-67
2022/06/22 16:57:50;;;;;;;2.47;2.00;;;17.50;99.90;;;;;;5139557;27;20283;-64
2022/06/22 17:00:19;;;;;;;2.13;1.73;;;17.50;99.90;;;;;;5126006;27;20248;-64
2022/06/22 17:02:51;;;;;;;2.90;1.90;;;17.50;99.90;;;;;;5131181;27;20259;-67
2022/06/22 17:05:28;;;;;;;2.67;1.70;;;17.40;99.90;;;;;;5108603;28;20210;-68
2022/06/22 17:08:07;;;;;;;3.70;2.03;;;17.40;99.90;;;;;;5127557;28;20427;-68
2022/06/22 17:10:43;;;;;;;3.80;2.07;;;17.40;99.90;;;;;;5119676;28;20268;-69
2022/06/22 17:13:13;;;;;;;5.07;2.23;;;17.40;99.90;;;;;;5124087;27;20543;-69
2022/06/22 17:15:47;;;;;;;3.27;1.80;;;17.40;99.90;;;;;;5113335;28;20195;-68
2022/06/22 17:18:24;;;;;;;2.50;1.87;;;17.40;99.90;;;;;;5129133;28;20192;-72
2022/06/22 17:20:57;;;;;;;2.63;2.10;;;17.30;99.90;;;;;;5130000;27;20244;-68
2022/06/22 17:23:33;;;;;;;3.33;2.27;;;17.30;99.90;;;;;;5131278;27;20206;-68
2022/06/22 17:26:08;;;;;;;3.00;1.83;;;17.30;99.90;;;;;;5135435;27;20326;-67
2022/06/22 17:28:42;;;;;;;3.80;2.10;;;17.30;99.90;;;;;;5135513;27;20226;-69
2022/06/22 17:31:13;;;;;;;2.93;2.10;;;17.30;99.90;;;;;;5135202;27;20301;-70
2022/06/22 17:33:43;;;;;;;2.03;1.83;;;17.30;99.90;;;;;;5127027;27;20200;-69
2022/06/22 17:36:34;;;;;;;1.70;1.60;;;17.30;99.90;;;;;;5135622;27;20286;-68
2022/06/22 17:39:20;;;;;;;2.17;1.83;;;17.20;99.90;;;;;;5120723;27;20210;-69
2022/06/22 17:41:56;;;;;;;2.20;1.70;;;17.20;99.90;;;;;;5114807;27;20190;-69
2022/06/22 17:44:35;;;;;;;2.60;1.93;;;17.20;99.90;;;;;;5135158;27;20198;-70
2022/06/22 17:47:11;;;;;;;2.53;1.57;;;17.20;99.90;;;;;;5135593;27;20199;-68
2022/06/22 17:49:44;;;;;;;1.70;1.60;;;17.10;99.90;;;;;;5134994;27;20212;-68
2022/06/22 17:52:18;;;;;;;2.70;1.70;;;17.00;99.90;;;;;;5134849;27;20192;-70
2022/06/22 17:54:50;;;;;;;3.77;2.60;;;16.90;99.90;;;;;;5129034;27;20195;-67
2022/06/22 17:57:19;;;;;;;1.80;1.70;;;16.90;99.90;;;;;;5125942;27;20213;-67
2022/06/22 17:59:52;;;;;;;1.67;1.50;;;16.80;99.90;;;;;;5131810;27;20204;-68
2022/06/22 18:02:30;;;;;;;2.00;1.57;;;16.70;99.90;;;;;;5114208;28;20195;-68
2022/06/22 18:05:26;;;;;;;1.80;1.60;;;16.70;99.90;;;;;;5114531;28;20265;-69
2022/06/22 18:07:57;;;;;;;2.20;1.70;;;16.70;99.90;;;;;;5112572;28;20580;-70
2022/06/22 18:10:25;;;;;;;3.27;1.77;;;16.60;99.90;;;;;;5134405;27;20241;-69
2022/06/22 18:12:53;;;;;;;5.43;1.73;;;16.40;99.90;;;;;;5121561;27;20303;-66
2022/06/22 18:15:25;;;;;;;2.17;1.73;;;16.40;99.90;;;;;;5114321;28;20223;-66
2022/06/22 18:17:56;;;;;;;2.27;1.50;;;16.30;99.90;;;;;;5128512;27;20612;-67
2022/06/22 18:20:26;;;;;;;1.93;1.70;;;16.30;99.90;;;;;;5132502;27;20270;-69
2022/06/22 18:22:55;;;;;;;2.33;1.70;;;16.20;99.90;;;;;;5117547;27;20558;-67
2022/06/22 18:25:30;;;;;;;1.90;1.70;;;16.10;99.90;;;;;;5110813;27;20196;-68
2022/06/22 18:28:02;;;;;;;4.90;2.47;;;16.10;99.90;;;;;;5113914;28;20199;-67
2022/06/22 18:30:36;;;;;;;3.00;2.33;;;16.00;99.90;;;;;;5113562;28;20219;-66
2022/06/22 18:33:12;;;;;;;2.10;1.73;;;16.00;99.90;;;;;;5109576;28;20286;-68
2022/06/22 18:35:46;;;;;;;5.50;2.27;;;16.00;99.90;;;;;;5102550;27;20612;-67
2022/06/22 18:38:19;;;;;;;1.70;1.60;;;16.00;99.90;;;;;;5113507;28;20221;-68
2022/06/22 18:43:48;;;;;;;3.30;1.70;;;15.80;99.90;;;;;;5129343;27;20320;-69
2022/06/22 18:46:21;;;;;;;2.37;1.57;;;15.80;99.90;;;;;;5124119;27;20214;-70
2022/06/22 18:48:51;;;;;;;4.43;1.70;;;15.70;99.90;;;;;;5114017;28;20256;-68
2022/06/22 18:51:24;;;;;;;1.70;1.60;;;15.60;99.90;;;;;;5113746;28;20262;-69
2022/06/22 18:53:59;;;;;;;1.87;1.73;;;15.50;99.90;;;;;;5113371;27;20183;-69
2022/06/22 18:56:28;;;;;;;1.90;1.70;;;15.40;99.90;;;;;;5133164;27;20270;-70
2022/06/22 18:59:05;;;;;;;3.53;1.90;;;15.30;99.90;;;;;;5134587;27;20213;-71
2022/06/22 19:01:34;;;;;;;2.13;1.70;;;15.30;99.90;;;;;;5134016;27;20282;-69
2022/06/22 19:04:12;;;;;;;1.60;1.50;;;15.20;99.90;;;;;;5119008;27;20208;-68
2022/06/22 19:06:45;;;;;;;4.70;3.10;;;15.20;99.90;;;;;;5117925;27;20205;-69
2022/06/22 19:09:14;;;;;;;2.80;2.50;;;15.20;99.90;;;;;;5092623;28;20216;-71
2022/06/22 19:11:53;;;;;;;1.70;1.60;;;15.20;99.90;;;;;;5112821;27;20227;-68
2022/06/22 19:14:20;;;;;;;2.27;1.80;;;15.20;99.90;;;;;;5120930;27;20194;-67
2022/06/22 19:17:06;;;;;;;3.00;2.10;;;15.20;99.90;;;;;;5131478;27;20210;-69
2022/06/22 19:19:41;;;;;;;3.50;1.77;;;15.20;99.90;;;;;;5130767;27;20322;-71
2022/06/22 19:22:30;;;;;;;1.70;1.60;;;15.10;99.90;;;;;;5112602;28;20191;-69
2022/06/22 19:25:14;;;;;;;1.97;1.70;;;15.10;99.90;;;;;;5126979;27;20198;-69
2022/06/22 19:27:45;;;;;;;2.07;1.83;;;15.10;99.90;;;;;;5133447;27;20195;-68
2022/06/22 19:30:15;;;;;;;3.93;1.80;;;15.10;99.90;;;;;;5125026;27;20208;-69
2022/06/22 19:32:59;;;;;;;3.53;2.13;;;15.10;99.90;;;;;;5112505;28;20203;-69
2022/06/22 19:35:38;;;;;;;3.10;2.07;;;15.10;99.90;;;;;;5112067;28;20188;-68
2022/06/22 19:38:08;;;;;;;2.10;1.90;;;15.20;99.90;;;;;;5117958;27;20230;-68
2022/06/22 19:40:44;;;;;;;4.30;2.50;;;15.20;99.90;;;;;;5112850;28;20652;-66
2022/06/22 19:43:27;;;;;;;2.77;1.83;;;15.20;99.90;;;;;;5112560;28;20283;-70
2022/06/22 19:46:07;;;;;;;2.33;2.03;;;15.20;99.90;;;;;;5127840;27;20210;-70
2022/06/22 19:48:40;;;;;;;2.33;1.63;;;15.20;99.90;;;;;;5133252;27;20662;-69
2022/06/22 19:51:14;;;;;;;3.57;2.17;;;15.20;99.90;;;;;;5132614;27;20218;-67
2022/06/22 19:53:53;;;;;;;2.70;1.70;;;15.30;99.90;;;;;;5129804;27;20249;-67
2022/06/22 19:56:26;;;;;;;2.77;1.90;;;15.30;99.90;;;;;;5132154;27;20237;-66
2022/06/22 19:58:54;;;;;;;3.33;2.10;;;15.30;99.90;;;;;;5121025;27;20230;-68
2022/06/22 20:01:24;;;;;;;3.33;1.90;;;15.30;99.90;;;;;;5116819;27;20269;-66
2022/06/22 20:03:55;;;;;;;5.60;1.70;;;15.30;99.90;;;;;;5112554;28;20203;-71
2022/06/22 20:06:31;;;;;;;4.73;2.10;;;15.30;99.90;;;;;;5118929;28;20666;-67
2022/06/22 20:09:02;;;;;;;3.80;1.83;;;15.30;99.90;;;;;;5131711;28;20208;-69
2022/06/22 20:11:39;;;;;;;2.83;2.10;;;15.30;99.90;;;;;;5123076;28;20590;-69
2022/06/22 20:14:12;;;;;;;3.83;2.07;;;15.30;99.90;;;;;;5109678;28;20218;-68
2022/06/22 20:16:48;;;;;;;3.03;2.10;;;15.30;99.90;;;;;;5112391;28;20638;-67
2022/06/22 20:19:15;;;;;;;3.07;2.27;;;15.30;99.90;;;;;;5112161;28;20203;-67
2022/06/22 20:21:49;;;;;;;2.07;1.83;;;15.30;99.90;;;;;;5110731;28;20192;-66
2022/06/22 20:24:25;;;;;;;3.57;2.20;;;15.30;99.90;;;;;;5132545;28;20187;-68
2022/06/22 20:26:59;;;;;;;3.80;2.23;;;15.30;99.90;;;;;;5115968;28;20538;-67
2022/06/22 20:29:37;;;;;;;4.80;2.20;;;15.30;99.90;;;;;;5110744;28;20208;-68
2022/06/22 20:32:12;;;;;;;3.33;2.20;;;15.30;99.90;;;;;;5091534;28;20241;-68
2022/06/22 20:34:52;;;;;;;2.87;2.30;;;15.30;99.90;;;;;;5113298;28;20194;-69
2022/06/22 20:37:21;;;;;;;6.60;2.20;;;15.30;99.90;;;;;;5132122;28;20313;-69
2022/06/22 20:39:52;;;;;;;2.97;2.17;;;15.30;99.90;;;;;;5129966;28;20207;-66
2022/06/22 20:42:30;;;;;;;2.30;2.10;;;15.20;99.90;;;;;;5132339;28;20648;-67
2022/06/22 20:45:16;;;;;;;3.20;2.30;;;15.20;99.90;;;;;;5124833;27;20586;-67
2022/06/22 20:47:54;;;;;;;2.80;2.37;;;15.20;99.90;;;;;;5112035;28;20214;-67
2022/06/22 20:50:27;;;;;;;3.23;2.10;;;15.30;99.90;;;;;;5117175;28;20209;-67
2022/06/22 20:53:00;;;;;;;4.60;2.90;;;15.30;99.90;;;;;;5132248;28;20240;-68
2022/06/22 20:55:32;;;;;;;4.63;2.47;;;15.30;99.90;;;;;;5132478;27;20193;-66
2022/06/22 20:58:04;;;;;;;3.07;2.40;;;15.30;99.90;;;;;;5134222;27;20207;-67
2022/06/22 21:00:33;;;;;;;7.30;2.50;;;15.30;99.90;;;;;;5123934;27;20227;-65
2022/06/22 21:03:00;;;;;;;3.47;2.40;;;15.30;99.90;;;;;;5109834;28;20649;-70
2022/06/22 21:05:38;;;;;;;6.03;2.40;;;15.30;99.90;;;;;;5115192;28;20195;-67
2022/06/22 21:08:12;;;;;;;5.63;2.33;;;15.30;99.90;;;;;;5104345;28;20203;-67
2022/06/22 21:10:41;;;;;;;3.30;2.43;;;15.30;99.90;;;;;;5112902;28;20292;-66
2022/06/22 21:13:10;;;;;;;7.23;3.00;;;15.30;99.90;;;;;;5130323;27;20223;-65
2022/06/22 21:15:50;;;;;;;4.30;2.60;;;15.30;99.90;;;;;;5131538;27;20662;-65
2022/06/22 21:18:51;;;;;;;3.93;2.63;;;15.30;99.90;;;;;;5136019;27;20716;-66
2022/06/22 21:21:18;;;;;;;4.03;2.80;;;15.40;99.90;;;;;;5112683;27;20230;-67
2022/06/22 21:23:55;;;;;;;5.17;2.87;;;15.40;99.90;;;;;;5135713;27;20202;-66
2022/06/22 21:26:24;;;;;;;7.73;3.00;;;15.30;99.90;;;;;;5120976;27;20675;-67
2022/06/22 21:29:32;;;;;;;3.23;2.60;;;15.40;99.90;;;;;;5115024;28;20290;-66
2022/06/22 21:32:05;;;;;;;4.47;2.57;;;15.40;99.90;;;;;;5115049;28;20575;-65
2022/06/22 21:34:42;;;;;;;5.50;2.60;;;15.40;99.90;;;;;;5114010;28;20206;-67
2022/06/22 21:37:17;;;;;;;2.57;2.13;;;15.40;99.90;;;;;;5114904;28;20207;-66
2022/06/22 21:39:58;;;;;;;3.37;2.43;;;15.40;99.90;;;;;;5114560;28;20199;-68
2022/06/22 21:42:32;;;;;;;3.50;2.40;;;15.40;99.90;;;;;;5114943;28;20214;-67
2022/06/22 21:45:16;;;;;;;3.90;2.30;;;15.40;99.90;;;;;;5113459;28;20222;-67
2022/06/22 21:48:01;;;;;;;3.03;2.30;;;15.30;99.90;;;;;;5127796;27;20194;-68
2022/06/22 21:50:54;;;;;;;7.20;2.80;;;15.30;99.90;;;;;;5135287;27;20218;-68
2022/06/22 21:53:42;;;;;;;8.00;3.20;;;15.30;99.90;;;;;;5126345;27;20660;-67
2022/06/22 21:56:25;;;;;;;4.63;2.83;;;15.30;99.90;;;;;;5123070;27;20240;-66
2022/06/22 21:59:07;;;;;;;6.87;2.80;;;15.30;99.90;;;;;;5134862;27;20193;-68
2022/06/22 22:01:46;;;;;;;3.60;2.70;;;15.20;99.90;;;;;;5129346;27;20192;-66
2022/06/22 22:04:23;;;;;;;4.33;2.80;;;15.20;99.90;;;;;;5114562;28;20211;-67
2022/06/22 22:06:54;;;;;;;4.50;2.90;;;15.10;99.90;;;;;;5114241;28;20637;-68
2022/06/22 22:09:27;;;;;;;5.53;3.00;;;15.10;99.90;;;;;;5130294;27;20652;-67
2022/06/22 22:11:55;;;;;;;3.10;2.80;;;15.10;99.90;;;;;;5093614;28;20622;-67
2022/06/22 22:14:30;;;;;;;4.83;2.80;;;15.10;99.90;;;;;;5094108;28;20212;-67
2022/06/22 22:17:02;;;;;;;4.80;2.80;;;15.10;99.90;;;;;;5110173;28;20213;-65
2022/06/22 22:19:41;;;;;;;4.93;2.63;;;15.10;99.90;;;;;;5093713;27;20227;-66
2022/06/22 22:22:16;;;;;;;5.60;2.80;;;15.10;99.90;;;;;;5099834;28;20199;-67
2022/06/22 22:24:46;;;;;;;3.70;2.80;;;15.10;99.90;;;;;;5106967;28;20202;-65
2022/06/22 22:27:18;;;;;;;3.70;2.70;;;15.10;99.90;;;;;;5110960;27;20211;-66
2022/06/22 22:29:58;;;;;;;5.17;2.70;;;15.20;99.90;;;;;;5101909;28;20466;-65